sensor_id;sensor_type;location;lat;lon;timestamp;temperature;humidity
44723;DHT22;30451;48.638;10.624;2022-10-31T00:02:10;24.90;57.50
44723;DHT22;30451;48.638;10.624;2022-10-31T00:04:36;24.80;57.50
44723;DHT22;30451;48.638;10.624;2022-10-31T00:07:01;24.80;57.50
44723;DHT22;30451;48.638;10.624;2022-10-31T00:09:27;24.80;57.50
44723;DHT22;30451;48.638;10.624;2022-10-31T00:11:52;24.80;57.50
44723;DHT22;30451;48.638;10.624;2022-10-31T00:14:18;24.80;57.60
44723;DHT22;30451;48.638;10.624;2022-10-31T00:16:43;24.80;57.60
44723;DHT22;30451;48.638;10.624;2022-10-31T00:19:09;24.80;57.60
44723;DHT22;30451;48.638;10.624;2022-10-31T00:21:35;24.70;57.60
44723;DHT22;30451;48.638;10.624;2022-10-31T00:24:01;24.70;57.70
44723;DHT22;30451;48.638;10.624;2022-10-31T00:26:30;24.60;57.60
44723;DHT22;30451;48.638;10.624;2022-10-31T00:28:58;24.70;57.70
44723;DHT22;30451;48.638;10.624;2022-10-31T00:31:23;24.60;57.70
44723;DHT22;30451;48.638;10.624;2022-10-31T00:33:49;24.60;57.70
44723;DHT22;30451;48.638;10.624;2022-10-31T00:36:17;24.50;57.70
44723;DHT22;30451;48.638;10.624;2022-10-31T00:38:44;24.60;57.80
44723;DHT22;30451;48.638;10.624;2022-10-31T00:41:10;24.50;57.70
44723;DHT22;30451;48.638;10.624;2022-10-31T00:43:36;24.50;57.80
44723;DHT22;30451;48.638;10.624;2022-10-31T00:46:02;24.50;57.80
44723;DHT22;30451;48.638;10.624;2022-10-31T00:48:28;24.50;57.80
44723;DHT22;30451;48.638;10.624;2022-10-31T00:50:54;24.50;57.90
44723;DHT22;30451;48.638;10.624;2022-10-31T00:53:20;24.40;57.80
44723;DHT22;30451;48.638;10.624;2022-10-31T00:55:45;24.40;57.90
44723;DHT22;30451;48.638;10.624;2022-10-31T00:58:11;24.40;57.90
44723;DHT22;30451;48.638;10.624;2022-10-31T01:00:37;24.40;58.40
44723;DHT22;30451;48.638;10.624;2022-10-31T01:03:02;24.40;57.90
44723;DHT22;30451;48.638;10.624;2022-10-31T01:05:28;24.40;58.00
44723;DHT22;30451;48.638;10.624;2022-10-31T01:07:54;24.30;58.00
44723;DHT22;30451;48.638;10.624;2022-10-31T01:10:19;24.30;58.00
44723;DHT22;30451;48.638;10.624;2022-10-31T01:12:47;24.30;58.00
44723;DHT22;30451;48.638;10.624;2022-10-31T01:15:18;24.30;58.00
44723;DHT22;30451;48.638;10.624;2022-10-31T01:17:44;24.30;58.00
44723;DHT22;30451;48.638;10.624;2022-10-31T01:20:11;24.30;58.10
44723;DHT22;30451;48.638;10.624;2022-10-31T01:22:37;24.20;58.00
44723;DHT22;30451;48.638;10.624;2022-10-31T01:25:02;24.20;58.10
44723;DHT22;30451;48.638;10.624;2022-10-31T01:27:28;24.20;58.10
44723;DHT22;30451;48.638;10.624;2022-10-31T01:29:54;24.20;58.10
44723;DHT22;30451;48.638;10.624;2022-10-31T01:32:19;24.20;58.10
44723;DHT22;30451;48.638;10.624;2022-10-31T01:34:45;24.10;58.10
44723;DHT22;30451;48.638;10.624;2022-10-31T01:37:10;24.10;58.10
44723;DHT22;30451;48.638;10.624;2022-10-31T01:39:36;24.10;58.10
44723;DHT22;30451;48.638;10.624;2022-10-31T01:42:02;24.10;58.10
44723;DHT22;30451;48.638;10.624;2022-10-31T01:52:17;24.10;58.20
44723;DHT22;30451;48.638;10.624;2022-10-31T01:55:03;24.00;58.20
44723;DHT22;30451;48.638;10.624;2022-10-31T01:57:32;24.00;58.20
44723;DHT22;30451;48.638;10.624;2022-10-31T02:00:03;24.00;58.20
44723;DHT22;30451;48.638;10.624;2022-10-31T02:02:30;24.00;58.20
44723;DHT22;30451;48.638;10.624;2022-10-31T02:04:57;24.00;58.30
44723;DHT22;30451;48.638;10.624;2022-10-31T02:07:36;23.90;58.30
44723;DHT22;30451;48.638;10.624;2022-10-31T02:10:04;23.90;58.80
44723;DHT22;30451;48.638;10.624;2022-10-31T02:12:31;23.90;58.40
44723;DHT22;30451;48.638;10.624;2022-10-31T02:14:58;23.90;58.40
44723;DHT22;30451;48.638;10.624;2022-10-31T02:17:25;23.90;58.40
44723;DHT22;30451;48.638;10.624;2022-10-31T02:20:15;23.90;58.40
44723;DHT22;30451;48.638;10.624;2022-10-31T02:23:11;23.90;58.40
44723;DHT22;30451;48.638;10.624;2022-10-31T02:33:48;23.80;58.40
44723;DHT22;30451;48.638;10.624;2022-10-31T02:36:30;23.80;58.40
44723;DHT22;30451;48.638;10.624;2022-10-31T02:39:29;23.80;58.40
44723;DHT22;30451;48.638;10.624;2022-10-31T02:50:00;23.70;58.60
44723;DHT22;30451;48.638;10.624;2022-10-31T02:52:28;23.70;58.60
44723;DHT22;30451;48.638;10.624;2022-10-31T02:54:54;23.70;58.60
44723;DHT22;30451;48.638;10.624;2022-10-31T02:57:28;23.60;58.60
44723;DHT22;30451;48.638;10.624;2022-10-31T03:00:00;23.70;58.60
44723;DHT22;30451;48.638;10.624;2022-10-31T03:02:33;23.60;58.60
44723;DHT22;30451;48.638;10.624;2022-10-31T03:08:21;23.60;58.60
44723;DHT22;30451;48.638;10.624;2022-10-31T03:11:08;23.60;58.70
44723;DHT22;30451;48.638;10.624;2022-10-31T03:13:39;23.50;58.60
44723;DHT22;30451;48.638;10.624;2022-10-31T03:16:16;23.50;58.70
44723;DHT22;30451;48.638;10.624;2022-10-31T03:19:01;23.50;58.70
44723;DHT22;30451;48.638;10.624;2022-10-31T03:21:41;23.50;58.70
44723;DHT22;30451;48.638;10.624;2022-10-31T03:24:08;23.50;58.70
44723;DHT22;30451;48.638;10.624;2022-10-31T03:26:38;23.50;58.70
44723;DHT22;30451;48.638;10.624;2022-10-31T03:29:07;23.50;58.70
44723;DHT22;30451;48.638;10.624;2022-10-31T03:31:39;23.40;58.70
44723;DHT22;30451;48.638;10.624;2022-10-31T03:34:07;23.40;58.80
44723;DHT22;30451;48.638;10.624;2022-10-31T03:36:36;23.40;58.80
44723;DHT22;30451;48.638;10.624;2022-10-31T03:39:04;23.40;58.80
44723;DHT22;30451;48.638;10.624;2022-10-31T03:41:34;23.40;58.80
44723;DHT22;30451;48.638;10.624;2022-10-31T03:44:08;23.40;58.80
44723;DHT22;30451;48.638;10.624;2022-10-31T03:46:36;23.40;58.80
44723;DHT22;30451;48.638;10.624;2022-10-31T03:49:02;23.40;58.80
44723;DHT22;30451;48.638;10.624;2022-10-31T03:51:59;23.40;58.80
44723;DHT22;30451;48.638;10.624;2022-10-31T03:57:15;23.40;58.80
44723;DHT22;30451;48.638;10.624;2022-10-31T03:59:58;23.40;58.80
44723;DHT22;30451;48.638;10.624;2022-10-31T04:02:30;23.40;58.90
44723;DHT22;30451;48.638;10.624;2022-10-31T04:04:57;23.30;59.30
44723;DHT22;30451;48.638;10.624;2022-10-31T04:07:28;23.30;58.80
44723;DHT22;30451;48.638;10.624;2022-10-31T04:09:56;23.30;58.80
44723;DHT22;30451;48.638;10.624;2022-10-31T04:12:24;23.30;58.80
44723;DHT22;30451;48.638;10.624;2022-10-31T04:14:52;23.30;58.80
44723;DHT22;30451;48.638;10.624;2022-10-31T04:17:21;23.30;58.80
44723;DHT22;30451;48.638;10.624;2022-10-31T04:19:48;23.30;58.80
44723;DHT22;30451;48.638;10.624;2022-10-31T04:22:14;23.30;58.90
44723;DHT22;30451;48.638;10.624;2022-10-31T04:24:40;23.30;58.90
44723;DHT22;30451;48.638;10.624;2022-10-31T04:27:06;23.20;58.80
44723;DHT22;30451;48.638;10.624;2022-10-31T04:29:31;23.20;58.80
44723;DHT22;30451;48.638;10.624;2022-10-31T04:31:57;23.20;58.80
44723;DHT22;30451;48.638;10.624;2022-10-31T04:34:22;23.20;58.80
44723;DHT22;30451;48.638;10.624;2022-10-31T04:36:48;23.20;58.90
44723;DHT22;30451;48.638;10.624;2022-10-31T04:39:14;23.20;58.90
44723;DHT22;30451;48.638;10.624;2022-10-31T04:41:39;23.20;58.90
44723;DHT22;30451;48.638;10.624;2022-10-31T04:44:05;23.20;58.90
44723;DHT22;30451;48.638;10.624;2022-10-31T04:46:30;23.20;58.90
44723;DHT22;30451;48.638;10.624;2022-10-31T04:48:56;23.20;58.90
44723;DHT22;30451;48.638;10.624;2022-10-31T04:51:22;23.20;59.00
44723;DHT22;30451;48.638;10.624;2022-10-31T04:53:47;23.20;59.00
44723;DHT22;30451;48.638;10.624;2022-10-31T04:56:13;23.20;58.90
44723;DHT22;30451;48.638;10.624;2022-10-31T04:58:39;23.20;58.90
44723;DHT22;30451;48.638;10.624;2022-10-31T05:01:04;23.20;58.90
44723;DHT22;30451;48.638;10.624;2022-10-31T05:03:30;23.10;58.90
44723;DHT22;30451;48.638;10.624;2022-10-31T05:05:55;23.20;58.90
44723;DHT22;30451;48.638;10.624;2022-10-31T05:08:21;23.10;58.90
44723;DHT22;30451;48.638;10.624;2022-10-31T05:10:46;23.20;58.90
44723;DHT22;30451;48.638;10.624;2022-10-31T05:13:12;23.10;58.90
44723;DHT22;30451;48.638;10.624;2022-10-31T05:15:39;23.10;59.40
44723;DHT22;30451;48.638;10.624;2022-10-31T05:18:05;23.10;58.90
44723;DHT22;30451;48.638;10.624;2022-10-31T05:20:31;23.10;58.90
44723;DHT22;30451;48.638;10.624;2022-10-31T05:22:57;23.10;58.90
44723;DHT22;30451;48.638;10.624;2022-10-31T05:25:25;23.10;58.90
44723;DHT22;30451;48.638;10.624;2022-10-31T05:27:52;23.10;58.90
44723;DHT22;30451;48.638;10.624;2022-10-31T05:30:27;23.10;58.90
44723;DHT22;30451;48.638;10.624;2022-10-31T05:32:53;23.10;58.90
44723;DHT22;30451;48.638;10.624;2022-10-31T05:35:21;23.10;59.00
44723;DHT22;30451;48.638;10.624;2022-10-31T05:37:47;23.10;58.90
44723;DHT22;30451;48.638;10.624;2022-10-31T05:40:14;23.10;59.00
44723;DHT22;30451;48.638;10.624;2022-10-31T05:42:41;23.10;58.90
44723;DHT22;30451;48.638;10.624;2022-10-31T05:45:09;23.10;59.00
44723;DHT22;30451;48.638;10.624;2022-10-31T05:47:35;23.00;58.90
44723;DHT22;30451;48.638;10.624;2022-10-31T05:50:01;23.10;59.00
44723;DHT22;30451;48.638;10.624;2022-10-31T05:52:26;23.00;58.90
44723;DHT22;30451;48.638;10.624;2022-10-31T05:54:52;23.00;58.90
44723;DHT22;30451;48.638;10.624;2022-10-31T05:57:18;23.00;58.90
44723;DHT22;30451;48.638;10.624;2022-10-31T05:59:43;23.00;59.00
44723;DHT22;30451;48.638;10.624;2022-10-31T06:02:09;23.00;59.00
44723;DHT22;30451;48.638;10.624;2022-10-31T06:04:34;23.00;59.00
44723;DHT22;30451;48.638;10.624;2022-10-31T06:07:00;23.00;59.50
44723;DHT22;30451;48.638;10.624;2022-10-31T06:09:26;22.90;59.00
44723;DHT22;30451;48.638;10.624;2022-10-31T06:11:51;23.00;59.00
44723;DHT22;30451;48.638;10.624;2022-10-31T06:14:17;23.00;59.00
44723;DHT22;30451;48.638;10.624;2022-10-31T06:16:42;23.00;59.00
44723;DHT22;30451;48.638;10.624;2022-10-31T06:19:08;23.00;59.00
44723;DHT22;30451;48.638;10.624;2022-10-31T06:21:33;22.90;58.90
44723;DHT22;30451;48.638;10.624;2022-10-31T06:23:59;22.90;58.90
44723;DHT22;30451;48.638;10.624;2022-10-31T06:26:25;22.90;58.90
44723;DHT22;30451;48.638;10.624;2022-10-31T06:28:50;22.90;58.90
44723;DHT22;30451;48.638;10.624;2022-10-31T06:31:16;22.90;58.90
44723;DHT22;30451;48.638;10.624;2022-10-31T06:33:42;22.90;58.90
44723;DHT22;30451;48.638;10.624;2022-10-31T06:36:08;22.90;58.90
44723;DHT22;30451;48.638;10.624;2022-10-31T06:38:34;22.90;59.00
44723;DHT22;30451;48.638;10.624;2022-10-31T06:41:06;22.90;59.00
44723;DHT22;30451;48.638;10.624;2022-10-31T06:43:32;22.90;59.00
44723;DHT22;30451;48.638;10.624;2022-10-31T06:46:01;22.90;59.00
44723;DHT22;30451;48.638;10.624;2022-10-31T06:48:27;22.90;59.00
44723;DHT22;30451;48.638;10.624;2022-10-31T06:50:52;22.90;59.00
44723;DHT22;30451;48.638;10.624;2022-10-31T06:53:18;22.90;59.00
44723;DHT22;30451;48.638;10.624;2022-10-31T06:55:43;22.90;59.00
44723;DHT22;30451;48.638;10.624;2022-10-31T06:58:10;22.90;59.10
44723;DHT22;30451;48.638;10.624;2022-10-31T07:00:35;22.90;59.00
44723;DHT22;30451;48.638;10.624;2022-10-31T07:03:07;22.80;58.90
44723;DHT22;30451;48.638;10.624;2022-10-31T07:05:34;22.90;59.00
44723;DHT22;30451;48.638;10.624;2022-10-31T07:08:02;22.90;59.00
44723;DHT22;30451;48.638;10.624;2022-10-31T07:10:31;22.80;58.90
44723;DHT22;30451;48.638;10.624;2022-10-31T07:12:58;22.80;58.90
44723;DHT22;30451;48.638;10.624;2022-10-31T07:15:25;22.80;59.00
44723;DHT22;30451;48.638;10.624;2022-10-31T07:17:51;22.80;58.90
44723;DHT22;30451;48.638;10.624;2022-10-31T07:20:17;22.80;59.00
44723;DHT22;30451;48.638;10.624;2022-10-31T07:22:43;22.80;58.90
44723;DHT22;30451;48.638;10.624;2022-10-31T07:25:09;22.80;58.90
44723;DHT22;30451;48.638;10.624;2022-10-31T07:27:37;22.80;58.90
44723;DHT22;30451;48.638;10.624;2022-10-31T07:30:03;22.80;58.90
44723;DHT22;30451;48.638;10.624;2022-10-31T07:32:37;22.80;58.90
44723;DHT22;30451;48.638;10.624;2022-10-31T07:35:03;22.70;59.10
44723;DHT22;30451;48.638;10.624;2022-10-31T07:37:29;22.70;58.90
44723;DHT22;30451;48.638;10.624;2022-10-31T07:39:54;22.70;58.90
44723;DHT22;30451;48.638;10.624;2022-10-31T07:42:20;22.70;59.00
44723;DHT22;30451;48.638;10.624;2022-10-31T07:44:46;22.80;59.00
44723;DHT22;30451;48.638;10.624;2022-10-31T07:47:11;22.70;59.00
44723;DHT22;30451;48.638;10.624;2022-10-31T07:49:37;22.70;59.00
44723;DHT22;30451;48.638;10.624;2022-10-31T07:52:02;22.70;59.00
44723;DHT22;30451;48.638;10.624;2022-10-31T07:54:28;22.70;58.90
44723;DHT22;30451;48.638;10.624;2022-10-31T07:56:53;22.80;59.00
44723;DHT22;30451;48.638;10.624;2022-10-31T07:59:19;22.70;58.90
44723;DHT22;30451;48.638;10.624;2022-10-31T08:01:45;22.70;58.80
44723;DHT22;30451;48.638;10.624;2022-10-31T08:04:10;22.70;58.80
44723;DHT22;30451;48.638;10.624;2022-10-31T08:06:36;22.70;58.80
44723;DHT22;30451;48.638;10.624;2022-10-31T08:09:02;22.70;59.30
44723;DHT22;30451;48.638;10.624;2022-10-31T08:11:27;22.70;58.70
44723;DHT22;30451;48.638;10.624;2022-10-31T08:13:53;22.70;58.70
44723;DHT22;30451;48.638;10.624;2022-10-31T08:16:18;22.70;58.70
44723;DHT22;30451;48.638;10.624;2022-10-31T08:18:44;22.60;58.60
44723;DHT22;30451;48.638;10.624;2022-10-31T08:21:09;22.70;58.70
44723;DHT22;30451;48.638;10.624;2022-10-31T08:23:35;22.70;58.60
44723;DHT22;30451;48.638;10.624;2022-10-31T08:26:01;22.70;58.60
44723;DHT22;30451;48.638;10.624;2022-10-31T08:28:27;22.70;58.60
44723;DHT22;30451;48.638;10.624;2022-10-31T08:30:52;22.70;58.60
44723;DHT22;30451;48.638;10.624;2022-10-31T08:33:19;22.60;58.50
44723;DHT22;30451;48.638;10.624;2022-10-31T08:35:44;22.70;58.60
44723;DHT22;30451;48.638;10.624;2022-10-31T08:38:11;22.60;58.50
44723;DHT22;30451;48.638;10.624;2022-10-31T08:40:37;22.60;58.60
44723;DHT22;30451;48.638;10.624;2022-10-31T08:43:05;22.60;58.60
44723;DHT22;30451;48.638;10.624;2022-10-31T08:45:33;22.60;58.60
44723;DHT22;30451;48.638;10.624;2022-10-31T08:48:19;22.60;58.60
44723;DHT22;30451;48.638;10.624;2022-10-31T08:50:45;22.60;58.60
44723;DHT22;30451;48.638;10.624;2022-10-31T08:53:16;22.60;58.60
44723;DHT22;30451;48.638;10.624;2022-10-31T08:55:44;22.60;58.60
44723;DHT22;30451;48.638;10.624;2022-10-31T08:58:16;22.60;58.60
44723;DHT22;30451;48.638;10.624;2022-10-31T09:00:43;22.60;58.60
44723;DHT22;30451;48.638;10.624;2022-10-31T09:03:11;22.60;58.60
44723;DHT22;30451;48.638;10.624;2022-10-31T09:05:37;22.60;58.60
44723;DHT22;30451;48.638;10.624;2022-10-31T09:08:04;22.60;58.60
44723;DHT22;30451;48.638;10.624;2022-10-31T09:10:31;22.60;58.60
44723;DHT22;30451;48.638;10.624;2022-10-31T09:12:57;22.60;58.70
44723;DHT22;30451;48.638;10.624;2022-10-31T09:15:24;22.60;58.70
44723;DHT22;30451;48.638;10.624;2022-10-31T09:17:50;22.60;58.70
44723;DHT22;30451;48.638;10.624;2022-10-31T09:20:16;22.60;58.70
44723;DHT22;30451;48.638;10.624;2022-10-31T09:22:42;22.60;58.70
44723;DHT22;30451;48.638;10.624;2022-10-31T09:25:08;22.60;58.70
44723;DHT22;30451;48.638;10.624;2022-10-31T09:27:34;22.60;58.70
44723;DHT22;30451;48.638;10.624;2022-10-31T09:29:59;22.60;58.70
44723;DHT22;30451;48.638;10.624;2022-10-31T09:32:25;22.60;58.70
44723;DHT22;30451;48.638;10.624;2022-10-31T09:34:50;22.60;58.80
44723;DHT22;30451;48.638;10.624;2022-10-31T09:37:16;22.60;58.80
44723;DHT22;30451;48.638;10.624;2022-10-31T09:39:41;22.60;58.80
44723;DHT22;30451;48.638;10.624;2022-10-31T09:45:23;22.60;58.90
44723;DHT22;30451;48.638;10.624;2022-10-31T09:53:04;22.60;58.90
44723;DHT22;30451;48.638;10.624;2022-10-31T09:55:45;22.60;58.90
44723;DHT22;30451;48.638;10.624;2022-10-31T09:58:18;22.60;58.90
44723;DHT22;30451;48.638;10.624;2022-10-31T10:00:46;22.60;58.90
44723;DHT22;30451;48.638;10.624;2022-10-31T10:03:35;22.60;59.00
44723;DHT22;30451;48.638;10.624;2022-10-31T10:06:20;22.60;59.00
44723;DHT22;30451;48.638;10.624;2022-10-31T10:08:46;22.60;59.00
44723;DHT22;30451;48.638;10.624;2022-10-31T10:18:56;22.60;59.30
44723;DHT22;30451;48.638;10.624;2022-10-31T10:27:36;22.80;59.20
44723;DHT22;30451;48.638;10.624;2022-10-31T10:30:21;22.80;59.20
44723;DHT22;30451;48.638;10.624;2022-10-31T10:32:51;22.80;59.20
44723;DHT22;30451;48.638;10.624;2022-10-31T10:35:54;22.80;59.10
44723;DHT22;30451;48.638;10.624;2022-10-31T10:40:53;22.90;59.00
44723;DHT22;30451;48.638;10.624;2022-10-31T10:43:36;22.90;59.00
44723;DHT22;30451;48.638;10.624;2022-10-31T10:49:06;23.00;59.00
44723;DHT22;30451;48.638;10.624;2022-10-31T11:00:21;23.20;58.60
44723;DHT22;30451;48.638;10.624;2022-10-31T11:02:48;23.20;58.50
44723;DHT22;30451;48.638;10.624;2022-10-31T11:05:38;23.20;58.40
44723;DHT22;30451;48.638;10.624;2022-10-31T11:08:05;23.30;58.40
44723;DHT22;30451;48.638;10.624;2022-10-31T11:10:31;23.30;58.20
44723;DHT22;30451;48.638;10.624;2022-10-31T11:13:17;23.30;58.20
44723;DHT22;30451;48.638;10.624;2022-10-31T11:16:10;23.40;58.10
44723;DHT22;30451;48.638;10.624;2022-10-31T11:18:44;23.40;58.10
44723;DHT22;30451;48.638;10.624;2022-10-31T11:21:29;23.40;58.00
44723;DHT22;30451;48.638;10.624;2022-10-31T11:26:37;23.40;57.90
44723;DHT22;30451;48.638;10.624;2022-10-31T11:29:03;23.50;58.00
44723;DHT22;30451;48.638;10.624;2022-10-31T11:31:31;23.50;58.40
44723;DHT22;30451;48.638;10.624;2022-10-31T11:34:00;23.50;57.80
44723;DHT22;30451;48.638;10.624;2022-10-31T11:36:30;23.50;57.80
44723;DHT22;30451;48.638;10.624;2022-10-31T11:38:58;23.50;57.70
44723;DHT22;30451;48.638;10.624;2022-10-31T11:44:25;23.60;57.80
44723;DHT22;30451;48.638;10.624;2022-10-31T11:46:58;23.60;57.80
44723;DHT22;30451;48.638;10.624;2022-10-31T11:49:35;23.70;57.80
44723;DHT22;30451;48.638;10.624;2022-10-31T11:52:22;23.70;57.70
44723;DHT22;30451;48.638;10.624;2022-10-31T11:54:50;23.70;57.70
44723;DHT22;30451;48.638;10.624;2022-10-31T11:57:45;23.70;57.60
44723;DHT22;30451;48.638;10.624;2022-10-31T12:00:31;23.70;57.60
44723;DHT22;30451;48.638;10.624;2022-10-31T12:06:00;23.80;57.60
44723;DHT22;30451;48.638;10.624;2022-10-31T12:08:31;23.80;57.50
44723;DHT22;30451;48.638;10.624;2022-10-31T12:22:02;23.90;57.40
44723;DHT22;30451;48.638;10.624;2022-10-31T12:30:20;23.90;57.30
44723;DHT22;30451;48.638;10.624;2022-10-31T12:46:58;24.00;57.10
44723;DHT22;30451;48.638;10.624;2022-10-31T13:00:46;24.10;57.10
44723;DHT22;30451;48.638;10.624;2022-10-31T13:05:51;24.10;57.00
44723;DHT22;30451;48.638;10.624;2022-10-31T13:08:24;24.10;57.00
44723;DHT22;30451;48.638;10.624;2022-10-31T13:14:04;24.10;57.00
44723;DHT22;30451;48.638;10.624;2022-10-31T13:16:40;24.10;57.00
44723;DHT22;30451;48.638;10.624;2022-10-31T13:19:25;24.20;57.00
44723;DHT22;30451;48.638;10.624;2022-10-31T13:24:55;24.20;57.00
44723;DHT22;30451;48.638;10.624;2022-10-31T13:27:25;24.20;56.90
44723;DHT22;30451;48.638;10.624;2022-10-31T13:32:17;24.20;56.90
44723;DHT22;30451;48.638;10.624;2022-10-31T13:34:47;24.20;56.90
44723;DHT22;30451;48.638;10.624;2022-10-31T13:40:02;24.30;56.90
44723;DHT22;30451;48.638;10.624;2022-10-31T13:42:58;24.30;56.90
44723;DHT22;30451;48.638;10.624;2022-10-31T13:45:26;24.30;56.90
44723;DHT22;30451;48.638;10.624;2022-10-31T13:48:18;24.30;56.90
44723;DHT22;30451;48.638;10.624;2022-10-31T13:51:05;24.30;56.90
44723;DHT22;30451;48.638;10.624;2022-10-31T13:54:20;24.30;57.40
44723;DHT22;30451;48.638;10.624;2022-10-31T13:56:49;24.30;56.80
44723;DHT22;30451;48.638;10.624;2022-10-31T13:59:21;24.40;56.80
44723;DHT22;30451;48.638;10.624;2022-10-31T14:04:22;24.30;56.80
44723;DHT22;30451;48.638;10.624;2022-10-31T14:07:06;24.30;56.70
44723;DHT22;30451;48.638;10.624;2022-10-31T14:12:12;24.40;56.80
44723;DHT22;30451;48.638;10.624;2022-10-31T14:14:49;24.40;56.80
44723;DHT22;30451;48.638;10.624;2022-10-31T14:17:19;24.40;56.80
44723;DHT22;30451;48.638;10.624;2022-10-31T14:22:44;24.40;56.70
44723;DHT22;30451;48.638;10.624;2022-10-31T14:25:33;24.50;56.70
44723;DHT22;30451;48.638;10.624;2022-10-31T14:28:01;24.40;56.70
44723;DHT22;30451;48.638;10.624;2022-10-31T14:30:28;24.40;57.20
44723;DHT22;30451;48.638;10.624;2022-10-31T14:33:00;24.50;56.70
44723;DHT22;30451;48.638;10.624;2022-10-31T14:36:01;24.50;56.70
44723;DHT22;30451;48.638;10.624;2022-10-31T14:38:53;24.50;56.70
44723;DHT22;30451;48.638;10.624;2022-10-31T14:45:02;24.50;56.60
44723;DHT22;30451;48.638;10.624;2022-10-31T14:47:58;24.50;56.60
44723;DHT22;30451;48.638;10.624;2022-10-31T14:50:40;24.50;56.60
44723;DHT22;30451;48.638;10.624;2022-10-31T14:53:12;24.50;56.50
44723;DHT22;30451;48.638;10.624;2022-10-31T14:55:44;24.50;56.70
44723;DHT22;30451;48.638;10.624;2022-10-31T14:58:15;24.50;56.70
44723;DHT22;30451;48.638;10.624;2022-10-31T15:00:43;24.50;56.70
44723;DHT22;30451;48.638;10.624;2022-10-31T15:03:42;24.50;56.70
44723;DHT22;30451;48.638;10.624;2022-10-31T15:06:12;24.50;56.70
44723;DHT22;30451;48.638;10.624;2022-10-31T15:08:52;24.50;56.80
44723;DHT22;30451;48.638;10.624;2022-10-31T15:11:26;24.50;56.70
44723;DHT22;30451;48.638;10.624;2022-10-31T15:13:55;24.50;56.70
44723;DHT22;30451;48.638;10.624;2022-10-31T15:16:26;24.50;56.60
44723;DHT22;30451;48.638;10.624;2022-10-31T15:18:56;24.50;56.60
44723;DHT22;30451;48.638;10.624;2022-10-31T15:21:24;24.60;56.60
44723;DHT22;30451;48.638;10.624;2022-10-31T15:23:52;24.50;57.00
44723;DHT22;30451;48.638;10.624;2022-10-31T15:26:19;24.50;56.50
44723;DHT22;30451;48.638;10.624;2022-10-31T15:28:46;24.60;56.50
44723;DHT22;30451;48.638;10.624;2022-10-31T15:31:22;24.60;56.50
44723;DHT22;30451;48.638;10.624;2022-10-31T15:33:49;24.60;56.40
44723;DHT22;30451;48.638;10.624;2022-10-31T15:36:24;24.60;56.40
44723;DHT22;30451;48.638;10.624;2022-10-31T15:38:50;24.60;56.40
44723;DHT22;30451;48.638;10.624;2022-10-31T15:41:33;24.60;56.40
44723;DHT22;30451;48.638;10.624;2022-10-31T15:47:04;24.60;56.30
44723;DHT22;30451;48.638;10.624;2022-10-31T15:49:37;24.60;56.30
44723;DHT22;30451;48.638;10.624;2022-10-31T15:54:58;24.60;56.20
44723;DHT22;30451;48.638;10.624;2022-10-31T15:57:24;24.60;56.20
44723;DHT22;30451;48.638;10.624;2022-10-31T15:59:53;24.60;56.20
44723;DHT22;30451;48.638;10.624;2022-10-31T16:02:23;24.60;56.20
44723;DHT22;30451;48.638;10.624;2022-10-31T16:04:52;24.60;56.20
44723;DHT22;30451;48.638;10.624;2022-10-31T16:07:19;24.70;56.20
44723;DHT22;30451;48.638;10.624;2022-10-31T16:09:59;24.70;56.20
44723;DHT22;30451;48.638;10.624;2022-10-31T16:12:32;24.70;56.20
44723;DHT22;30451;48.638;10.624;2022-10-31T16:14:59;24.70;56.10
44723;DHT22;30451;48.638;10.624;2022-10-31T16:17:26;24.70;56.10
44723;DHT22;30451;48.638;10.624;2022-10-31T16:20:02;24.70;56.10
44723;DHT22;30451;48.638;10.624;2022-10-31T16:22:30;24.70;56.10
44723;DHT22;30451;48.638;10.624;2022-10-31T16:25:12;24.70;56.10
44723;DHT22;30451;48.638;10.624;2022-10-31T16:27:39;24.70;56.10
44723;DHT22;30451;48.638;10.624;2022-10-31T16:35:45;24.70;56.10
44723;DHT22;30451;48.638;10.624;2022-10-31T16:38:11;24.70;56.10
44723;DHT22;30451;48.638;10.624;2022-10-31T16:40:38;24.70;56.10
44723;DHT22;30451;48.638;10.624;2022-10-31T16:43:04;24.70;56.10
44723;DHT22;30451;48.638;10.624;2022-10-31T16:45:31;24.70;56.00
44723;DHT22;30451;48.638;10.624;2022-10-31T16:48:06;24.70;56.00
44723;DHT22;30451;48.638;10.624;2022-10-31T16:50:34;24.70;56.00
44723;DHT22;30451;48.638;10.624;2022-10-31T16:52:59;24.70;56.10
44723;DHT22;30451;48.638;10.624;2022-10-31T16:55:25;24.70;56.10
44723;DHT22;30451;48.638;10.624;2022-10-31T16:57:52;24.70;56.10
44723;DHT22;30451;48.638;10.624;2022-10-31T17:00:22;24.70;56.20
44723;DHT22;30451;48.638;10.624;2022-10-31T17:02:50;24.60;56.10
44723;DHT22;30451;48.638;10.624;2022-10-31T17:05:18;24.60;56.10
44723;DHT22;30451;48.638;10.624;2022-10-31T17:07:44;24.60;56.10
44723;DHT22;30451;48.638;10.624;2022-10-31T17:10:11;24.60;56.20
44723;DHT22;30451;48.638;10.624;2022-10-31T17:12:40;24.60;56.20
44723;DHT22;30451;48.638;10.624;2022-10-31T17:15:18;24.60;56.20
44723;DHT22;30451;48.638;10.624;2022-10-31T17:17:44;24.60;56.20
44723;DHT22;30451;48.638;10.624;2022-10-31T17:20:24;24.60;56.30
44723;DHT22;30451;48.638;10.624;2022-10-31T17:22:51;24.60;56.30
44723;DHT22;30451;48.638;10.624;2022-10-31T17:25:22;24.60;56.20
44723;DHT22;30451;48.638;10.624;2022-10-31T17:27:48;24.60;56.20
44723;DHT22;30451;48.638;10.624;2022-10-31T17:30:14;24.60;56.10
44723;DHT22;30451;48.638;10.624;2022-10-31T17:32:43;24.60;56.10
44723;DHT22;30451;48.638;10.624;2022-10-31T17:35:10;24.60;56.10
44723;DHT22;30451;48.638;10.624;2022-10-31T17:37:37;24.60;56.10
44723;DHT22;30451;48.638;10.624;2022-10-31T17:40:03;24.60;56.10
44723;DHT22;30451;48.638;10.624;2022-10-31T17:42:29;24.60;56.10
44723;DHT22;30451;48.638;10.624;2022-10-31T17:44:55;24.60;56.20
44723;DHT22;30451;48.638;10.624;2022-10-31T17:47:21;24.60;56.20
44723;DHT22;30451;48.638;10.624;2022-10-31T17:49:46;24.60;56.20
44723;DHT22;30451;48.638;10.624;2022-10-31T17:52:12;24.60;56.40
44723;DHT22;30451;48.638;10.624;2022-10-31T17:54:37;24.60;56.20
44723;DHT22;30451;48.638;10.624;2022-10-31T17:57:03;24.70;56.20
44723;DHT22;30451;48.638;10.624;2022-10-31T17:59:29;24.70;56.30
44723;DHT22;30451;48.638;10.624;2022-10-31T18:01:55;24.70;56.20
44723;DHT22;30451;48.638;10.624;2022-10-31T18:04:21;24.70;56.20
44723;DHT22;30451;48.638;10.624;2022-10-31T18:06:47;24.70;56.20